ADDS METAR Data INFO
IDs: Format: Raw Decoded Include TAF

Data at: 0329 UTC 19 Jul 2018

KVLL 190315Z AUTO 06005KT 10SM CLR 20/10 A3010 RMK AO2 T02000102
KVLL 190255Z AUTO 07007KT 10SM CLR 21/10 A3010 RMK AO2 T02050104
KVLL 190235Z AUTO 05004KT 10SM CLR 21/11 A3010 RMK AO2 T02120111
KVLL 190215Z AUTO 05007KT 10SM CLR 22/11 A3009 RMK AO2 T02200114
KVLL 190155Z AUTO 04006KT 10SM CLR 24/11 A3008 RMK AO2 T02350106
KVLL 190135Z AUTO 00000KT 10SM CLR 23/11 A3007 RMK AO2 T02330106
KVLL 190115Z AUTO 11003KT 10SM CLR 24/11 A3007 RMK AO2 T02420105
KVLL 190055Z AUTO 12003KT 10SM SCT060 25/10 A3007 RMK AO2 T02500104
KVLL 190035Z AUTO 13004KT 10SM SCT060 25/10 A3007 RMK AO2 T02520103
KVLL 190015Z AUTO 13004KT 10SM BKN060 26/10 A3006 RMK AO2 T02570102
KVLL 182355Z AUTO 12005KT 10SM BKN060 26/10 A3006 RMK AO2 T02630103 10275 20245
KVLL 182335Z AUTO 12006KT 10SM BKN060 27/10 A3006 RMK AO2 T02670101
KVLL 182315Z AUTO 12003KT 10SM OVC060 27/10 A3006 RMK AO2 T02660096
KVLL 182255Z AUTO 00000KT 10SM BKN060 28/09 A3006 RMK AO2 T02750091
KVLL 182235Z AUTO 36003KT 10SM SCT060 27/09 A3006 RMK AO2 T02690092
KVLL 182215Z AUTO 25004KT 10SM SCT060 27/09 A3006 RMK AO2 T02720088
KVLL 182155Z AUTO 00000KT 10SM SCT060 27/09 A3006 RMK AO2 T02700089
KVLL 182135Z AUTO 00000KT 10SM SCT060 27/09 A3006 RMK AO2 T02660089
KVLL 182115Z AUTO 10004KT 10SM SCT060 27/09 A3007 RMK AO2 T02650093
KVLL 182055Z AUTO 00000KT 10SM BKN060 26/09 A3007 RMK AO2 T02600085
KVLL 182035Z AUTO 00000KT 10SM SCT060 26/09 A3008 RMK AO2 T02610088
KVLL 182015Z AUTO 00000KT 10SM SCT060 26/09 A3009 RMK AO2 T02600089
KVLL 181955Z AUTO 07004KT 10SM SCT060 26/09 A3009 RMK AO2 T02630091
KVLL 181935Z AUTO 05007KT 10SM BKN060 26/09 A3010 RMK AO2 T02550094
KVLL 181915Z AUTO 06003KT 10SM BKN060 26/10 A3010 RMK AO2 T02640097
KVLL 181855Z AUTO 07003KT 10SM SCT050 25/09 A3010 RMK AO2 T02530092
KVLL 181835Z AUTO 36005KT 10SM SCT050 25/10 A3011 RMK AO2 T02490098
KVLL 181815Z AUTO 05003KT 10SM SCT050 26/09 A3011 RMK AO2 T02560090
KVLL 181755Z AUTO 02005KT 10SM BKN050 25/10 A3012 RMK AO2 T02520101 10255 20182
KVLL 181735Z AUTO 34003KT 10SM OVC050 25/09 A3012 RMK AO2 T02480094
KVLL 181715Z AUTO 03003KT 10SM OVC050 25/10 A3013 RMK AO2 T02450098
KVLL 181655Z AUTO 27005KT 10SM BKN050 24/10 A3013 RMK AO2 T02410099
KVLL 181635Z AUTO 35004KT 10SM SCT050 25/10 A3013 RMK AO2 T02460101
KVLL 181615Z AUTO 33003KT 10SM SCT048 24/10 A3013 RMK AO2 T02370096
KVLL 181555Z AUTO 00000KT 10SM BKN048 24/10 A3013 RMK AO2 T02380100
KVLL 181535Z AUTO 04005KT 10SM BKN046 24/10 A3014 RMK AO2 T02440096
KVLL 181515Z AUTO 04004KT 10SM BKN042 24/10 A3013 RMK AO2 T02350096
KVLL 181455Z AUTO 33005KT 10SM SCT040 23/11 A3014 RMK AO2 T02300106
KVLL 181435Z AUTO 02004KT 10SM CLR 22/12 A3013 RMK AO2 T02230119
KVLL 181415Z AUTO 03004KT 10SM CLR 22/12 A3014 RMK AO2 T02180123
KVLL 181355Z AUTO 04003KT 10SM CLR 22/13 A3014 RMK AO2 T02170127
KVLL 181335Z AUTO 02003KT 10SM CLR 21/13 A3014 RMK AO2 T02070133
KVLL 181315Z AUTO 02003KT 10SM CLR 20/14 A3015 RMK AO2 T02000137
KVLL 181255Z AUTO 00000KT 10SM CLR 19/14 A3015 RMK AO2 T01940140
KVLL 181235Z AUTO 36005KT 10SM CLR 19/14 A3015 RMK AO2 T01890139
KVLL 181215Z AUTO 33004KT 10SM CLR 19/14 A3014 RMK AO2 T01860137
KVLL 181155Z AUTO 35006KT 10SM CLR 18/14 A3014 RMK AO2 T01800136 10181 20161
KVLL 181135Z AUTO 35004KT 10SM CLR 18/13 A3014 RMK AO2 T01750132
KVLL 181115Z AUTO 36004KT 10SM CLR 17/13 A3013 RMK AO2 T01720130
KVLL 181055Z AUTO 34004KT 10SM CLR 17/13 A3013 RMK AO2 T01660128
KVLL 181035Z AUTO 00000KT 10SM CLR 17/13 A3013 RMK AO2 T01660128
KVLL 181015Z AUTO 00000KT 10SM CLR 17/13 A3012 RMK AO2 T01650128
KVLL 180955Z AUTO 00000KT 10SM CLR 17/13 A3011 RMK AO2 T01670130
KVLL 180935Z AUTO 00000KT 7SM CLR 16/13 A3011 RMK AO2 T01630130
KVLL 180915Z AUTO 36003KT 10SM CLR 17/13 A3010 RMK AO2 T01670131
KVLL 180855Z AUTO 00000KT 10SM CLR 17/13 A3010 RMK AO2 T01700134
KVLL 180835Z AUTO 00000KT 10SM CLR 17/14 A3010 RMK AO2 T01690135
KVLL 180815Z AUTO 00000KT 10SM CLR 17/14 A3010 RMK AO2 T01700136
KVLL 180755Z AUTO 00000KT 10SM CLR 17/14 A3010 RMK AO2 T01720138
KVLL 180735Z AUTO 00000KT 10SM CLR 18/14 A3010 RMK AO2 T01750140
KVLL 180715Z AUTO 36003KT 10SM CLR 18/14 A3010 RMK AO2 T01750140
KVLL 180655Z AUTO 36003KT 10SM CLR 18/14 A3010 RMK AO2 T01760141
KVLL 180635Z AUTO 00000KT 10SM CLR 18/14 A3010 RMK AO2 T01770141
KVLL 180615Z AUTO 00000KT 10SM CLR 18/14 A3010 RMK AO2 T01800140
KVLL 180555Z AUTO 00000KT 10SM CLR 18/14 A3010 RMK AO2 T01810141 10257 20181 402790181
KVLL 180535Z AUTO 00000KT 10SM CLR 18/14 A3010 RMK AO2 T01830137
KVLL 180515Z AUTO 00000KT 10SM CLR 19/13 A3010 RMK AO2 T01880133
KVLL 180456Z AUTO 03006KT 10SM CLR 19/13 A3010 RMK AO2 T01880132
KVLL 180435Z AUTO 03004KT 10SM CLR 19/13 A3010 RMK AO2 T01900130
KVLL 180415Z AUTO 04004KT 10SM CLR 20/13 A3010 RMK AO2 T01950130
KVLL 180356Z AUTO 06004KT 10SM CLR 20/13 A3009 RMK AO2 T01980127
KVLL 180335Z AUTO 03006KT 10SM CLR 20/13 A3009 RMK AO2 T02010125
KVLL 180315Z AUTO 06007KT 10SM CLR 20/12 A3008 RMK AO2 T02030122
KVLL 180255Z AUTO 04006KT 10SM CLR 21/12 A3007 RMK AO2 T02070122
KVLL 180235Z AUTO 06009KT 10SM CLR 21/13 A3007 RMK AO2 T02080125
KVLL 180215Z AUTO 07007KT 10SM CLR 21/14 A3006 RMK AO2 T02130135
KVLL 180155Z AUTO 06009KT 10SM CLR 22/14 A3005 RMK AO2 T02210136
KVLL 180135Z AUTO 03008KT 10SM CLR 23/14 A3004 RMK AO2 T02300137
KVLL 180115Z AUTO 35008KT 10SM CLR 24/10 A3003 RMK AO2 T02440101
KVLL 180055Z AUTO 33004KT 10SM CLR 25/10 A3003 RMK AO2 T02450100
KVLL 180035Z AUTO 34007KT 10SM CLR 25/10 A3002 RMK AO2 T02500097
KVLL 180015Z AUTO 32008KT 10SM CLR 26/09 A3002 RMK AO2 T02550085
KVLL 172355Z AUTO 33006KT 10SM SCT060 SCT070 26/09 A3002 RMK AO2 T02570088 10279 20257
KVLL 172335Z AUTO 34009G14KT 10SM SCT065 BKN070 26/09 A3001 RMK AO2 T02570094
KVLL 172315Z AUTO 30008KT 10SM CLR 26/09 A3001 RMK AO2 T02630091
KVLL 172255Z AUTO 31010KT 10SM SCT080 26/09 A3001 RMK AO2 T02610091
KVLL 172235Z AUTO 30011G14KT 10SM SCT075 SCT080 26/09 A3001 RMK AO2 T02630086
KVLL 172215Z AUTO 30011G14KT 10SM SCT075 27/09 A3000 RMK AO2 T02670085
KVLL 172155Z AUTO 30011G16KT 290V350 10SM BKN070 BKN075 27/09 A3000 RMK AO2 T02690085
KVLL 172135Z AUTO 30010G16KT 10SM BKN070 28/09 A3001 RMK AO2 T02770085
KVLL 172115Z AUTO 29013G18KT 10SM BKN070 28/08 A3001 RMK AO2 T02770081
KVLL 172055Z AUTO 33008KT 300V010 10SM BKN060 BKN075 27/09 A3001 RMK AO2 T02730086
KVLL 172035Z AUTO 30009G15KT 10SM SCT060 28/08 A3001 RMK AO2 T02780084
KVLL 172015Z AUTO 29010G14KT 270V330 10SM BKN060 28/09 A3002 RMK AO2 T02790085
KVLL 171955Z AUTO 29008G16KT 10SM SCT060 27/08 A3002 RMK AO2 T02720081
KVLL 171936Z AUTO 32010G15KT 10SM BKN060 BKN075 26/09 A3002 RMK AO2 T02620086
KVLL 171915Z AUTO 33005KT 10SM BKN060 26/09 A3001 RMK AO2 T02630087
KVLL 171855Z AUTO 31010G15KT 10SM SCT060 28/09 A3001 RMK AO2 T02760086
KVLL 171835Z AUTO 32009G15KT 10SM SCT065 27/09 A3001 RMK AO2 T02660091
KVLL 171815Z AUTO 31009G14KT 300V360 10SM SCT070 SCT075 26/10 A3001 RMK AO2 T02620096
KVLL 171755Z AUTO 30009G15KT 10SM SCT060 BKN075 27/10 A3001 RMK AO2 T02650104 10273 20206
KVLL 171735Z AUTO 34010G17KT 10SM SCT060 BKN075 26/10 A3001 RMK AO2 T02570100
KVLL 171715Z AUTO 32012G18KT 10SM SCT060 BKN070 26/10 A3002 RMK AO2 T02640104
KVLL 171655Z AUTO 31010G16KT 10SM SCT060 BKN070 27/10 A3001 RMK AO2 T02660103
KVLL 171635Z AUTO 32011G14KT 290V350 10SM SCT060 BKN070 27/11 A3001 RMK AO2 T02660106
KVLL 171615Z AUTO 28008KT 10SM SCT060 27/09 A3001 RMK AO2 T02670094
KVLL 171555Z AUTO 29010G15KT 280V340 10SM CLR 26/10 A3001 RMK AO2 T02620097
KVLL 171535Z AUTO 31008KT 10SM CLR 26/09 A3001 RMK AO2 T02640094